createdAt,value
2022-12-31T00:00:57.816Z,976.34
2022-12-31T00:01:57.914Z,976.30
2022-12-31T00:02:57.966Z,976.30
2022-12-31T00:03:57.765Z,976.35
2022-12-31T00:04:57.772Z,976.36
2022-12-31T00:05:57.754Z,976.32
2022-12-31T00:06:57.758Z,976.38
2022-12-31T00:07:57.723Z,976.34
2022-12-31T00:08:57.749Z,976.34
2022-12-31T00:09:57.698Z,976.32
2022-12-31T00:10:57.718Z,976.30
2022-12-31T00:11:57.691Z,976.31
2022-12-31T00:12:57.695Z,976.31
2022-12-31T00:13:57.666Z,976.34
2022-12-31T00:14:57.691Z,976.28
2022-12-31T00:15:57.633Z,976.35
2022-12-31T00:16:57.659Z,976.38
2022-12-31T00:17:57.611Z,976.45
2022-12-31T00:18:57.623Z,976.52
2022-12-31T00:19:57.590Z,976.57
2022-12-31T00:20:57.622Z,976.56
2022-12-31T00:21:57.629Z,976.59
2022-12-31T00:22:57.587Z,976.57
2022-12-31T00:23:57.554Z,976.64
2022-12-31T00:24:57.609Z,976.66
2022-12-31T00:25:57.585Z,976.59
2022-12-31T00:26:57.609Z,976.59
2022-12-31T00:27:57.523Z,976.56
2022-12-31T00:28:57.524Z,976.48
2022-12-31T00:30:02.540Z,976.50
2022-12-31T00:30:57.676Z,976.42
2022-12-31T00:31:57.527Z,976.44
2022-12-31T00:32:57.522Z,976.47
2022-12-31T00:33:57.498Z,976.39
2022-12-31T00:34:57.516Z,976.42
2022-12-31T00:35:57.472Z,976.42
2022-12-31T00:36:57.497Z,976.55
2022-12-31T00:37:57.456Z,976.60
2022-12-31T00:38:57.463Z,976.58
2022-12-31T00:39:57.436Z,976.57
2022-12-31T00:40:57.444Z,976.56
2022-12-31T00:41:57.413Z,976.55
2022-12-31T00:42:57.428Z,976.58
2022-12-31T00:43:57.389Z,976.52
2022-12-31T00:44:57.392Z,976.58
2022-12-31T00:45:57.400Z,976.59
2022-12-31T00:46:57.400Z,976.53
2022-12-31T00:47:57.345Z,976.50
2022-12-31T00:48:57.359Z,976.55
2022-12-31T00:49:57.349Z,976.56
2022-12-31T00:50:57.327Z,976.55
2022-12-31T00:51:57.304Z,976.61
2022-12-31T00:52:57.282Z,976.51
2022-12-31T00:53:57.247Z,976.53
2022-12-31T00:54:57.227Z,976.59
2022-12-31T00:55:57.205Z,976.51
2022-12-31T00:56:57.223Z,976.61
2022-12-31T00:57:57.207Z,976.54
2022-12-31T00:58:57.238Z,976.61
2022-12-31T00:59:57.160Z,976.50
2022-12-31T01:00:57.252Z,976.46
2022-12-31T01:01:57.309Z,976.53
2022-12-31T01:02:57.290Z,976.57
2022-12-31T01:03:57.172Z,976.53
2022-12-31T01:04:57.200Z,976.50
2022-12-31T01:05:57.151Z,976.53
2022-12-31T01:06:57.184Z,976.55
2022-12-31T01:07:57.132Z,976.61
2022-12-31T01:08:57.139Z,976.60
2022-12-31T01:09:57.170Z,976.61
2022-12-31T01:10:57.145Z,976.61
2022-12-31T01:11:57.105Z,976.67
2022-12-31T01:12:57.100Z,976.59
2022-12-31T01:13:57.067Z,976.52
2022-12-31T01:14:57.205Z,976.57
2022-12-31T01:15:57.100Z,976.46
2022-12-31T01:16:57.060Z,976.50
2022-12-31T01:17:57.024Z,976.46
2022-12-31T01:18:57.032Z,976.53
2022-12-31T01:19:57.001Z,976.54
2022-12-31T01:20:57.012Z,976.59
2022-12-31T01:21:57.044Z,976.60
2022-12-31T01:22:56.991Z,976.67
2022-12-31T01:23:56.962Z,976.67
2022-12-31T01:24:56.961Z,976.64
2022-12-31T01:25:56.936Z,976.68
2022-12-31T01:26:56.963Z,976.68
2022-12-31T01:27:56.941Z,976.69
2022-12-31T01:28:56.931Z,976.66
2022-12-31T01:29:56.899Z,976.67
2022-12-31T01:30:57.037Z,976.71
2022-12-31T01:31:56.893Z,976.74
2022-12-31T01:32:56.878Z,976.78
2022-12-31T01:33:56.868Z,976.81
2022-12-31T01:34:56.861Z,976.78
2022-12-31T01:35:56.835Z,976.78
2022-12-31T01:36:56.835Z,976.84
2022-12-31T01:37:56.837Z,976.82
2022-12-31T01:38:56.828Z,976.77
2022-12-31T01:39:56.794Z,976.84
2022-12-31T01:40:56.811Z,976.84
2022-12-31T01:41:56.770Z,976.77
2022-12-31T01:42:56.777Z,976.78
2022-12-31T01:43:56.779Z,976.76
2022-12-31T01:44:56.769Z,976.75
2022-12-31T01:45:56.757Z,976.73
2022-12-31T01:46:56.744Z,976.74
2022-12-31T01:47:56.709Z,976.71
2022-12-31T01:48:56.756Z,976.67
2022-12-31T01:49:56.697Z,976.64
2022-12-31T01:50:56.700Z,976.69
2022-12-31T01:51:56.667Z,976.67
2022-12-31T01:52:56.677Z,976.61
2022-12-31T01:53:56.646Z,976.65
2022-12-31T01:54:56.681Z,976.71
2022-12-31T01:55:56.622Z,976.71
2022-12-31T01:56:56.628Z,976.64
2022-12-31T01:57:56.604Z,976.63
2022-12-31T01:58:56.658Z,976.62
2022-12-31T01:59:56.611Z,976.67
2022-12-31T02:00:56.661Z,976.52
2022-12-31T02:01:56.714Z,976.54
2022-12-31T02:02:56.665Z,976.49
2022-12-31T02:03:56.542Z,976.52
2022-12-31T02:04:56.547Z,976.54
2022-12-31T02:05:56.514Z,976.58
2022-12-31T02:06:56.521Z,976.51
2022-12-31T02:07:56.505Z,976.57
2022-12-31T02:08:56.525Z,976.58
2022-12-31T02:09:56.473Z,976.50
2022-12-31T02:10:56.506Z,976.55
2022-12-31T02:11:56.460Z,976.53
2022-12-31T02:12:56.469Z,976.50
2022-12-31T02:13:58.596Z,976.47
2022-12-31T02:14:56.447Z,976.47
2022-12-31T02:15:56.461Z,976.50
2022-12-31T02:16:56.452Z,976.39
2022-12-31T02:17:56.400Z,976.42
2022-12-31T02:18:56.400Z,976.36
2022-12-31T02:19:56.377Z,976.38
2022-12-31T02:20:56.377Z,976.32
2022-12-31T02:21:56.352Z,976.29
2022-12-31T02:22:56.380Z,976.34
2022-12-31T02:23:56.348Z,976.36
2022-12-31T02:24:56.359Z,976.29
2022-12-31T02:25:56.309Z,976.27
2022-12-31T02:26:56.313Z,976.24
2022-12-31T02:27:56.293Z,976.27
2022-12-31T02:28:56.314Z,976.26
2022-12-31T02:29:56.265Z,976.32
2022-12-31T02:30:56.319Z,976.28
2022-12-31T02:31:56.245Z,976.27
2022-12-31T02:32:56.255Z,976.15
2022-12-31T02:33:56.233Z,976.18
2022-12-31T02:34:56.259Z,976.15
2022-12-31T02:35:56.207Z,976.18
2022-12-31T02:36:56.219Z,976.26
2022-12-31T02:37:56.186Z,976.22
2022-12-31T02:38:56.186Z,976.18
2022-12-31T02:39:56.194Z,976.09
2022-12-31T02:40:56.165Z,976.09
2022-12-31T02:41:56.143Z,975.98
2022-12-31T02:42:56.149Z,975.98
2022-12-31T02:43:56.123Z,975.99
2022-12-31T02:44:56.134Z,975.93
2022-12-31T02:45:56.122Z,976.09
2022-12-31T02:46:56.112Z,975.92
2022-12-31T02:47:56.099Z,976.01
2022-12-31T02:48:56.084Z,976.01
2022-12-31T02:49:56.078Z,976.04
2022-12-31T02:50:56.049Z,976.02
2022-12-31T02:51:56.051Z,975.83
2022-12-31T02:52:56.049Z,976.03
2022-12-31T02:53:56.035Z,976.02
2022-12-31T02:54:56.007Z,976.11
2022-12-31T02:55:56.020Z,976.07
2022-12-31T02:56:55.997Z,976.04
2022-12-31T02:57:56.011Z,976.08
2022-12-31T02:58:55.966Z,976.02
2022-12-31T02:59:55.960Z,975.94
2022-12-31T03:00:56.089Z,976.09
2022-12-31T03:01:56.110Z,976.03
2022-12-31T03:02:56.012Z,976.13
2022-12-31T03:03:55.991Z,976.18
2022-12-31T03:04:55.931Z,976.14
2022-12-31T03:05:55.947Z,976.13
2022-12-31T03:06:55.919Z,976.11
2022-12-31T03:07:55.910Z,976.12
2022-12-31T03:08:55.876Z,976.10
2022-12-31T03:09:55.988Z,976.08
2022-12-31T03:10:55.857Z,976.11
2022-12-31T03:11:55.848Z,976.03
2022-12-31T03:12:55.818Z,976.17
2022-12-31T03:13:55.829Z,976.17
2022-12-31T03:14:55.801Z,976.28
2022-12-31T03:15:55.944Z,976.26
2022-12-31T03:16:55.814Z,976.27
2022-12-31T03:17:55.798Z,976.20
2022-12-31T03:18:55.753Z,976.24
2022-12-31T03:19:55.753Z,976.09
2022-12-31T03:20:55.745Z,976.09
2022-12-31T03:21:55.737Z,976.24
2022-12-31T03:22:55.710Z,976.30
2022-12-31T03:23:55.734Z,976.18
2022-12-31T03:24:55.693Z,976.25
2022-12-31T03:25:55.700Z,976.25
2022-12-31T03:26:55.672Z,976.17
2022-12-31T03:27:55.691Z,976.32
2022-12-31T03:28:55.651Z,976.19
2022-12-31T03:29:55.678Z,976.23
2022-12-31T03:30:55.629Z,976.45
2022-12-31T03:31:55.636Z,976.32
2022-12-31T03:32:55.607Z,976.36
2022-12-31T03:33:55.613Z,976.35
2022-12-31T03:34:55.590Z,976.29
2022-12-31T03:35:55.780Z,976.31
2022-12-31T03:36:55.565Z,976.37
2022-12-31T03:37:55.574Z,976.38
2022-12-31T03:38:55.553Z,976.37
2022-12-31T03:39:55.556Z,976.38
2022-12-31T03:40:55.559Z,976.40
2022-12-31T03:41:55.547Z,976.42
2022-12-31T03:42:55.500Z,976.45
2022-12-31T03:43:55.503Z,976.39
2022-12-31T03:44:55.487Z,976.45
2022-12-31T03:45:55.515Z,976.39
2022-12-31T03:46:55.489Z,976.34
2022-12-31T03:47:55.472Z,976.37
2022-12-31T03:48:55.440Z,976.38
2022-12-31T03:49:55.443Z,976.24
2022-12-31T03:50:55.417Z,976.35
2022-12-31T03:51:55.424Z,976.43
2022-12-31T03:52:55.424Z,976.41
2022-12-31T03:53:55.401Z,976.41
2022-12-31T03:54:55.380Z,976.39
2022-12-31T03:55:55.398Z,976.39
2022-12-31T03:57:00.110Z,976.27
2022-12-31T03:57:55.366Z,976.45
2022-12-31T03:58:55.346Z,976.42
2022-12-31T03:59:55.345Z,976.41
2022-12-31T04:00:55.364Z,976.34
2022-12-31T04:01:55.441Z,976.35
2022-12-31T04:02:55.338Z,976.26
2022-12-31T04:03:55.295Z,976.51
2022-12-31T04:04:55.285Z,976.42
2022-12-31T04:05:55.307Z,976.51
2022-12-31T04:06:55.251Z,976.43
2022-12-31T04:07:55.260Z,976.44
2022-12-31T04:08:55.230Z,976.45
2022-12-31T04:09:55.240Z,976.49
2022-12-31T04:10:55.275Z,976.52
2022-12-31T04:11:55.221Z,976.48
2022-12-31T04:12:55.194Z,976.50
2022-12-31T04:13:55.208Z,976.48
2022-12-31T04:14:55.193Z,976.43
2022-12-31T04:15:55.175Z,976.58
2022-12-31T04:16:55.148Z,976.36
2022-12-31T04:17:55.181Z,976.35
2022-12-31T04:18:55.127Z,976.41
2022-12-31T04:19:55.134Z,976.38
2022-12-31T04:20:55.104Z,976.48
2022-12-31T04:21:55.103Z,976.48
2022-12-31T04:22:55.106Z,976.53
2022-12-31T04:23:55.086Z,976.56
2022-12-31T04:24:55.075Z,976.42
2022-12-31T04:25:55.091Z,976.48
2022-12-31T04:26:55.051Z,976.41
2022-12-31T04:27:55.059Z,976.46
2022-12-31T04:28:55.018Z,976.52
2022-12-31T04:29:55.023Z,976.45
2022-12-31T04:30:55.001Z,976.47
2022-12-31T04:31:55.052Z,976.53
2022-12-31T04:32:54.982Z,976.54
2022-12-31T04:33:54.979Z,976.63
2022-12-31T04:34:54.954Z,976.58
2022-12-31T04:35:54.959Z,976.51
2022-12-31T04:36:54.946Z,976.47
2022-12-31T04:37:54.995Z,976.55
2022-12-31T04:38:54.916Z,976.50
2022-12-31T04:39:56.961Z,976.52
2022-12-31T04:40:54.907Z,976.62
2022-12-31T04:41:54.907Z,976.60
2022-12-31T04:42:54.873Z,976.65
2022-12-31T04:43:54.883Z,976.69
2022-12-31T04:44:54.860Z,976.73
2022-12-31T04:45:54.915Z,976.62
2022-12-31T04:46:54.836Z,976.75
2022-12-31T04:47:54.837Z,976.64
2022-12-31T04:48:54.814Z,976.72
2022-12-31T04:49:54.861Z,976.59
2022-12-31T04:50:54.788Z,976.56
2022-12-31T04:51:54.805Z,976.65
2022-12-31T04:52:54.773Z,976.58
2022-12-31T04:53:54.774Z,976.68
2022-12-31T04:54:54.764Z,976.67
2022-12-31T04:55:54.783Z,976.67
2022-12-31T04:56:54.733Z,976.62
2022-12-31T04:57:54.770Z,976.68
2022-12-31T04:58:54.712Z,976.87
2022-12-31T04:59:54.720Z,976.65
2022-12-31T05:00:54.833Z,976.62
2022-12-31T05:01:54.806Z,976.62
2022-12-31T05:02:54.750Z,976.70
2022-12-31T05:03:54.672Z,976.58
2022-12-31T05:04:54.657Z,976.57
2022-12-31T05:05:54.672Z,976.65
2022-12-31T05:06:54.640Z,976.72
2022-12-31T05:07:54.632Z,976.55
2022-12-31T05:08:54.632Z,976.65
2022-12-31T05:09:54.608Z,976.64
2022-12-31T05:10:54.607Z,976.62
2022-12-31T05:11:54.589Z,976.62
2022-12-31T05:12:54.565Z,976.70
2022-12-31T05:13:54.566Z,976.66
2022-12-31T05:14:54.545Z,976.78
2022-12-31T05:15:54.548Z,976.77
2022-12-31T05:16:54.621Z,976.70
2022-12-31T05:17:54.532Z,976.76
2022-12-31T05:18:54.507Z,976.76
2022-12-31T05:19:54.516Z,976.76
2022-12-31T05:20:54.479Z,976.83
2022-12-31T05:21:54.511Z,976.76
2022-12-31T05:22:54.459Z,976.73
2022-12-31T05:23:54.466Z,976.90
2022-12-31T05:24:54.445Z,976.84
2022-12-31T05:25:54.468Z,976.76
2022-12-31T05:26:54.419Z,976.74
2022-12-31T05:27:54.451Z,976.76
2022-12-31T05:28:54.403Z,976.79
2022-12-31T05:29:54.412Z,976.74
2022-12-31T05:30:54.444Z,976.67
2022-12-31T05:31:54.410Z,976.85
2022-12-31T05:32:54.365Z,976.77
2022-12-31T05:33:54.363Z,976.77
2022-12-31T05:34:54.341Z,976.86
2022-12-31T05:35:54.343Z,976.85
2022-12-31T05:36:54.317Z,976.80
2022-12-31T05:37:54.352Z,976.84
2022-12-31T05:38:54.296Z,976.85
2022-12-31T05:39:54.312Z,976.78
2022-12-31T05:40:54.279Z,976.83
2022-12-31T05:41:54.279Z,976.79
2022-12-31T05:42:54.268Z,976.95
2022-12-31T05:43:54.281Z,976.85
2022-12-31T05:44:54.233Z,976.87
2022-12-31T05:45:54.267Z,976.90
2022-12-31T05:46:54.217Z,976.90
2022-12-31T05:47:54.219Z,976.93
2022-12-31T05:48:54.214Z,976.84
2022-12-31T05:49:54.367Z,976.93
2022-12-31T05:50:54.188Z,976.86
2022-12-31T05:51:54.188Z,976.99
2022-12-31T05:52:54.157Z,976.96
2022-12-31T05:53:54.160Z,976.94
2022-12-31T05:54:54.164Z,977.00
2022-12-31T05:55:54.136Z,977.03
2022-12-31T05:56:54.119Z,976.96
2022-12-31T05:57:54.118Z,976.98
2022-12-31T05:58:54.092Z,976.89
2022-12-31T05:59:54.101Z,977.06
2022-12-31T06:00:54.091Z,977.13
2022-12-31T06:01:54.080Z,977.10
2022-12-31T06:02:54.082Z,977.05
2022-12-31T06:03:54.098Z,977.05
2022-12-31T06:04:54.029Z,977.02
2022-12-31T06:05:54.074Z,976.96
2022-12-31T06:06:54.013Z,977.05
2022-12-31T06:07:54.015Z,977.02
2022-12-31T06:08:53.990Z,977.07
2022-12-31T06:09:53.992Z,977.07
2022-12-31T06:10:53.967Z,977.00
2022-12-31T06:11:54.006Z,977.06
2022-12-31T06:12:53.951Z,977.11
2022-12-31T06:13:53.945Z,977.03
2022-12-31T06:14:53.929Z,977.04
2022-12-31T06:15:53.976Z,977.12
2022-12-31T06:16:53.906Z,977.08
2022-12-31T06:17:53.974Z,977.22
2022-12-31T06:18:53.882Z,977.10
2022-12-31T06:19:53.884Z,977.10
2022-12-31T06:20:53.863Z,977.14
2022-12-31T06:21:53.871Z,977.08
2022-12-31T06:22:53.846Z,977.17
2022-12-31T06:23:53.869Z,977.21
2022-12-31T06:24:53.831Z,977.08
2022-12-31T06:25:53.823Z,977.13
2022-12-31T06:26:53.801Z,977.21
2022-12-31T06:27:53.801Z,977.13
2022-12-31T06:28:53.799Z,977.18
2022-12-31T06:29:53.797Z,977.16
2022-12-31T06:30:53.766Z,977.29
2022-12-31T06:31:53.769Z,977.15
2022-12-31T06:32:53.742Z,977.21
2022-12-31T06:33:53.774Z,977.04
2022-12-31T06:34:53.718Z,977.11
2022-12-31T06:35:53.731Z,977.13
2022-12-31T06:36:53.700Z,977.26
2022-12-31T06:37:53.696Z,977.19
2022-12-31T06:38:53.675Z,977.31
2022-12-31T06:39:53.698Z,977.20
2022-12-31T06:40:53.661Z,977.18
2022-12-31T06:41:53.682Z,977.19
2022-12-31T06:42:59.711Z,977.23
2022-12-31T06:43:53.644Z,977.20
2022-12-31T06:44:53.613Z,977.19
2022-12-31T06:45:53.617Z,977.14
2022-12-31T06:46:53.631Z,977.20
2022-12-31T06:47:53.621Z,977.18
2022-12-31T06:48:53.573Z,977.23
2022-12-31T06:49:53.573Z,977.23
2022-12-31T06:50:53.552Z,977.20
2022-12-31T06:51:53.550Z,977.15
2022-12-31T06:52:53.549Z,977.19
2022-12-31T06:53:53.544Z,977.20
2022-12-31T06:54:53.505Z,977.24
2022-12-31T06:55:53.515Z,977.23
2022-12-31T06:56:53.491Z,977.23
2022-12-31T06:57:53.518Z,977.22
2022-12-31T06:58:53.429Z,977.23
2022-12-31T06:59:53.412Z,977.37
2022-12-31T07:00:53.394Z,977.36
2022-12-31T07:01:53.507Z,977.34
2022-12-31T07:02:53.389Z,977.28
2022-12-31T07:03:53.380Z,977.28
2022-12-31T07:04:53.401Z,977.35
2022-12-31T07:05:53.347Z,977.50
2022-12-31T07:06:53.344Z,977.45
2022-12-31T07:07:53.319Z,977.52
2022-12-31T07:08:53.326Z,977.50
2022-12-31T07:09:53.297Z,977.51
2022-12-31T07:10:53.318Z,977.61
2022-12-31T07:11:53.278Z,977.57
2022-12-31T07:12:53.287Z,977.60
2022-12-31T07:13:53.256Z,977.56
2022-12-31T07:14:53.259Z,977.72
2022-12-31T07:15:53.423Z,977.69
2022-12-31T07:16:53.240Z,977.67
2022-12-31T07:17:53.215Z,977.69
2022-12-31T07:18:53.220Z,977.74
2022-12-31T07:19:57.490Z,977.67
2022-12-31T07:20:53.199Z,977.68
2022-12-31T07:21:53.228Z,977.70
2022-12-31T07:22:53.178Z,977.68
2022-12-31T07:23:53.150Z,977.84
2022-12-31T07:24:53.164Z,977.74
2022-12-31T07:25:53.138Z,977.76
2022-12-31T07:26:56.820Z,977.66
2022-12-31T07:27:53.128Z,977.73
2022-12-31T07:28:53.126Z,977.85
2022-12-31T07:29:53.104Z,977.71
2022-12-31T07:30:53.146Z,977.77
2022-12-31T07:31:53.070Z,977.73
2022-12-31T07:32:53.074Z,977.78
2022-12-31T07:33:53.048Z,977.68
2022-12-31T07:34:53.086Z,977.77
2022-12-31T07:35:53.065Z,977.79
2022-12-31T07:36:53.032Z,977.68
2022-12-31T07:37:53.010Z,977.76
2022-12-31T07:38:53.030Z,977.85
2022-12-31T07:39:53.004Z,977.96
2022-12-31T07:40:53.071Z,977.86
2022-12-31T07:41:53.022Z,977.89
2022-12-31T07:42:53.084Z,977.83
2022-12-31T07:43:53.009Z,977.95
2022-12-31T07:44:53.010Z,977.94
2022-12-31T07:45:52.994Z,978.02
2022-12-31T07:46:53.034Z,977.87
2022-12-31T07:47:57.474Z,977.98
2022-12-31T07:48:52.969Z,977.97
2022-12-31T07:49:52.943Z,977.89
2022-12-31T07:50:52.957Z,977.98
2022-12-31T07:51:52.921Z,977.97
2022-12-31T07:52:52.910Z,977.99
2022-12-31T07:53:52.892Z,978.07
2022-12-31T07:54:52.895Z,978.10
2022-12-31T07:55:52.896Z,978.13
2022-12-31T07:56:52.895Z,978.00
2022-12-31T07:57:52.849Z,978.03
2022-12-31T07:58:52.863Z,977.98
2022-12-31T07:59:52.827Z,978.02
2022-12-31T08:00:52.859Z,978.14
2022-12-31T08:01:52.997Z,978.04
2022-12-31T08:02:52.807Z,978.17
2022-12-31T08:03:52.735Z,978.11
2022-12-31T08:04:52.740Z,978.19
2022-12-31T08:05:52.717Z,978.24
2022-12-31T08:06:52.722Z,978.18
2022-12-31T08:07:52.718Z,978.15
2022-12-31T08:08:52.737Z,978.17
2022-12-31T08:09:52.670Z,978.09
2022-12-31T08:10:52.678Z,978.26
2022-12-31T08:11:52.704Z,978.17
2022-12-31T08:12:52.737Z,978.13
2022-12-31T08:13:52.690Z,978.20
2022-12-31T08:14:52.684Z,978.26
2022-12-31T08:15:52.737Z,978.25
2022-12-31T08:16:52.673Z,978.25
2022-12-31T08:17:52.662Z,978.17
2022-12-31T08:18:52.658Z,978.25
2022-12-31T08:19:52.627Z,978.36
2022-12-31T08:20:52.662Z,978.26
2022-12-31T08:21:52.630Z,978.19
2022-12-31T08:22:52.623Z,978.26
2022-12-31T08:23:52.579Z,978.23
2022-12-31T08:24:52.580Z,978.14
2022-12-31T08:25:52.560Z,978.22
2022-12-31T08:26:53.390Z,978.13
2022-12-31T08:27:52.552Z,978.21
2022-12-31T08:28:52.559Z,978.26
2022-12-31T08:29:52.479Z,978.28
2022-12-31T08:30:52.474Z,978.31
2022-12-31T08:31:52.496Z,978.29
2022-12-31T08:32:52.462Z,978.45
2022-12-31T08:33:52.429Z,978.35
2022-12-31T08:34:52.437Z,978.40
2022-12-31T08:35:52.407Z,978.45
2022-12-31T08:36:52.479Z,978.41
2022-12-31T08:37:52.447Z,978.48
2022-12-31T08:38:52.450Z,978.49
2022-12-31T08:39:52.440Z,978.33
2022-12-31T08:40:52.408Z,978.37
2022-12-31T08:41:52.365Z,978.30
2022-12-31T08:42:52.354Z,978.41
2022-12-31T08:43:52.319Z,978.36
2022-12-31T08:44:52.339Z,978.25
2022-12-31T08:45:52.447Z,978.24
2022-12-31T08:46:52.377Z,978.23
2022-12-31T08:47:57.987Z,978.22
2022-12-31T08:48:52.287Z,978.28
2022-12-31T08:49:52.283Z,978.22
2022-12-31T08:50:52.264Z,978.28
2022-12-31T08:51:52.243Z,978.26
2022-12-31T08:52:52.304Z,978.27
2022-12-31T08:53:52.273Z,978.37
2022-12-31T08:54:52.231Z,978.37
2022-12-31T08:55:52.214Z,978.34
2022-12-31T08:56:52.204Z,978.34
2022-12-31T08:57:52.231Z,978.34
2022-12-31T08:58:52.230Z,978.38
2022-12-31T08:59:52.208Z,978.32
2022-12-31T09:00:52.253Z,978.43
2022-12-31T09:01:52.307Z,978.43
2022-12-31T09:02:52.194Z,978.43
2022-12-31T09:03:52.230Z,978.54
2022-12-31T09:04:52.175Z,978.60
2022-12-31T09:05:52.153Z,978.58
2022-12-31T09:06:52.153Z,978.67
2022-12-31T09:07:52.159Z,978.58
2022-12-31T09:08:52.132Z,978.61
2022-12-31T09:09:52.057Z,978.54
2022-12-31T09:10:52.120Z,978.52
2022-12-31T09:11:52.088Z,978.54
2022-12-31T09:12:52.100Z,978.45
2022-12-31T09:13:52.020Z,978.47
2022-12-31T09:14:52.048Z,978.42
2022-12-31T09:15:52.010Z,978.49
2022-12-31T09:16:52.057Z,978.47
2022-12-31T09:17:51.974Z,978.43
2022-12-31T09:18:52.035Z,978.46
2022-12-31T09:19:52.036Z,978.39
2022-12-31T09:20:52.033Z,978.45
2022-12-31T09:21:51.991Z,978.53
2022-12-31T09:22:51.934Z,978.54
2022-12-31T09:23:51.913Z,978.64
2022-12-31T09:24:51.908Z,978.65
2022-12-31T09:25:51.909Z,978.61
2022-12-31T09:26:51.914Z,978.51
2022-12-31T09:27:51.868Z,978.62
2022-12-31T09:28:51.891Z,978.46
2022-12-31T09:29:51.846Z,978.56
2022-12-31T09:30:51.854Z,978.54
2022-12-31T09:31:51.886Z,978.54
2022-12-31T09:32:58.615Z,978.63
2022-12-31T09:33:51.808Z,978.69
2022-12-31T09:34:51.804Z,978.60
2022-12-31T09:35:51.783Z,978.72
2022-12-31T09:36:51.791Z,978.67
2022-12-31T09:37:51.765Z,978.70
2022-12-31T09:38:51.837Z,978.72
2022-12-31T09:39:51.790Z,978.76
2022-12-31T09:40:51.802Z,978.60
2022-12-31T09:41:51.777Z,978.60
2022-12-31T09:42:51.803Z,978.72
2022-12-31T09:43:57.344Z,978.70
2022-12-31T09:44:51.769Z,978.83
2022-12-31T09:45:51.827Z,978.80
2022-12-31T09:46:51.738Z,978.82
2022-12-31T09:47:51.730Z,978.75
2022-12-31T09:48:51.723Z,978.86
2022-12-31T09:49:51.646Z,978.79
2022-12-31T09:50:51.648Z,978.80
2022-12-31T09:51:51.670Z,978.88
2022-12-31T09:52:51.690Z,978.91
2022-12-31T09:53:51.671Z,978.82
2022-12-31T09:54:51.606Z,978.70
2022-12-31T09:55:51.574Z,978.76
2022-12-31T09:56:57.140Z,978.79
2022-12-31T09:57:51.562Z,978.74
2022-12-31T09:58:51.596Z,978.90
2022-12-31T09:59:51.532Z,978.79
2022-12-31T10:00:51.595Z,978.74
2022-12-31T10:01:51.648Z,978.79
2022-12-31T10:02:51.644Z,978.72
2022-12-31T10:03:51.488Z,978.58
2022-12-31T10:04:51.510Z,978.74
2022-12-31T10:05:51.478Z,978.80
2022-12-31T10:06:51.481Z,978.79
2022-12-31T10:07:53.589Z,978.85
2022-12-31T10:08:51.472Z,978.96
2022-12-31T10:09:51.428Z,978.85
2022-12-31T10:10:51.457Z,978.83
2022-12-31T10:11:51.422Z,978.88
2022-12-31T10:12:51.416Z,978.97
2022-12-31T10:13:51.384Z,978.96
2022-12-31T10:14:51.421Z,978.88
2022-12-31T10:15:51.417Z,979.03
2022-12-31T10:16:51.503Z,979.04
2022-12-31T10:17:51.364Z,979.11
2022-12-31T10:18:51.358Z,978.90
2022-12-31T10:19:51.334Z,979.01
2022-12-31T10:20:51.353Z,979.03
2022-12-31T10:21:51.331Z,978.96
2022-12-31T10:22:51.365Z,978.98
2022-12-31T10:23:51.309Z,978.91
2022-12-31T10:24:51.332Z,978.99
2022-12-31T10:25:51.261Z,979.00
2022-12-31T10:26:53.446Z,978.97
2022-12-31T10:27:51.319Z,979.05
2022-12-31T10:28:51.241Z,979.06
2022-12-31T10:29:51.210Z,979.05
2022-12-31T10:30:51.259Z,979.15
2022-12-31T10:31:51.237Z,979.14
2022-12-31T10:32:51.201Z,979.23
2022-12-31T10:33:51.170Z,979.26
2022-12-31T10:34:51.180Z,979.39
2022-12-31T10:35:51.209Z,979.23
2022-12-31T10:36:51.215Z,979.31
2022-12-31T10:37:51.207Z,979.28
2022-12-31T10:38:51.193Z,979.22
2022-12-31T10:39:51.167Z,979.45
2022-12-31T10:40:51.136Z,979.35
2022-12-31T10:41:51.087Z,979.28
2022-12-31T10:42:51.104Z,979.38
2022-12-31T10:43:51.072Z,979.42
2022-12-31T10:44:51.133Z,979.44
2022-12-31T10:45:51.175Z,979.40
2022-12-31T10:46:51.117Z,979.42
2022-12-31T10:47:51.035Z,979.30
2022-12-31T10:48:51.028Z,979.40
2022-12-31T10:49:51.008Z,979.45
2022-12-31T10:50:51.005Z,979.54
2022-12-31T10:51:51.060Z,979.71
2022-12-31T10:52:51.037Z,979.50
2022-12-31T10:53:51.016Z,979.56
2022-12-31T10:54:50.976Z,979.42
2022-12-31T10:55:50.937Z,979.43
2022-12-31T10:56:50.970Z,979.40
2022-12-31T10:57:50.943Z,979.53
2022-12-31T10:58:50.921Z,979.50
2022-12-31T10:59:50.900Z,979.49
2022-12-31T11:00:50.903Z,979.41
2022-12-31T11:01:50.982Z,979.40
2022-12-31T11:02:50.999Z,979.38
2022-12-31T11:03:50.914Z,979.39
2022-12-31T11:04:50.916Z,979.44
2022-12-31T11:05:50.898Z,979.31
2022-12-31T11:06:50.893Z,979.56
2022-12-31T11:07:50.887Z,979.43
2022-12-31T11:08:50.871Z,979.43
2022-12-31T11:09:50.873Z,979.46
2022-12-31T11:10:50.846Z,979.59
2022-12-31T11:11:50.826Z,979.52
2022-12-31T11:12:50.855Z,979.54
2022-12-31T11:13:50.749Z,979.50
2022-12-31T11:14:50.756Z,979.56
2022-12-31T11:15:50.774Z,979.56
2022-12-31T11:16:50.736Z,979.54
2022-12-31T11:17:50.727Z,979.60
2022-12-31T11:18:50.706Z,979.58
2022-12-31T11:19:50.682Z,979.57
2022-12-31T11:20:50.710Z,979.59
2022-12-31T11:21:50.687Z,979.61
2022-12-31T11:22:50.658Z,979.57
2022-12-31T11:23:50.673Z,979.47
2022-12-31T11:24:50.631Z,979.53
2022-12-31T11:25:50.673Z,979.60
2022-12-31T11:26:50.614Z,979.56
2022-12-31T11:27:50.619Z,979.66
2022-12-31T11:28:50.610Z,979.51
2022-12-31T11:29:50.590Z,979.43
2022-12-31T11:30:50.613Z,979.52
2022-12-31T11:31:50.620Z,979.43
2022-12-31T11:32:50.548Z,979.38
2022-12-31T11:33:50.765Z,979.46
2022-12-31T11:34:50.527Z,979.47
2022-12-31T11:35:50.540Z,979.40
2022-12-31T11:36:50.521Z,979.42
2022-12-31T11:37:50.514Z,979.49
2022-12-31T11:38:50.543Z,979.48
2022-12-31T11:39:50.498Z,979.52
2022-12-31T11:40:50.462Z,979.49
2022-12-31T11:41:50.472Z,979.45
2022-12-31T11:42:50.441Z,979.53
2022-12-31T11:43:50.441Z,979.38
2022-12-31T11:44:50.444Z,979.54
2022-12-31T11:45:51.011Z,979.46
2022-12-31T11:46:50.535Z,979.44
2022-12-31T11:48:28.640Z,979.39
2022-12-31T11:48:50.404Z,979.44
2022-12-31T11:49:50.546Z,979.39
2022-12-31T11:50:50.360Z,979.32
2022-12-31T11:51:50.980Z,979.39
2022-12-31T11:52:50.345Z,979.45
2022-12-31T11:53:50.342Z,979.34
2022-12-31T11:54:50.315Z,979.25
2022-12-31T11:55:50.340Z,979.25
2022-12-31T11:56:50.305Z,979.36
2022-12-31T11:57:50.338Z,979.26
2022-12-31T11:58:50.285Z,979.39
2022-12-31T11:59:50.279Z,979.26
2022-12-31T12:00:50.253Z,979.23
2022-12-31T12:01:50.250Z,979.22
2022-12-31T12:02:50.268Z,979.32
2022-12-31T12:03:50.297Z,979.26
2022-12-31T12:04:50.228Z,979.37
2022-12-31T12:05:50.218Z,979.37
2022-12-31T12:06:50.179Z,979.26
2022-12-31T12:07:50.201Z,979.34
2022-12-31T12:08:50.199Z,979.38
2022-12-31T12:09:50.200Z,979.36
2022-12-31T12:10:50.145Z,979.40
2022-12-31T12:11:50.150Z,979.30
2022-12-31T12:12:50.125Z,979.51
2022-12-31T12:13:50.126Z,979.37
2022-12-31T12:14:50.098Z,979.45
2022-12-31T12:15:50.260Z,979.32
2022-12-31T12:16:50.121Z,979.32
2022-12-31T12:17:50.081Z,979.46
2022-12-31T12:18:50.057Z,979.34
2022-12-31T12:19:50.107Z,979.48
2022-12-31T12:20:50.057Z,979.37
2022-12-31T12:21:50.051Z,979.43
2022-12-31T12:22:50.033Z,979.49
2022-12-31T12:23:50.023Z,979.52
2022-12-31T12:24:50.016Z,979.51
2022-12-31T12:25:50.019Z,979.50
2022-12-31T12:26:49.974Z,979.57
2022-12-31T12:27:49.973Z,979.43
2022-12-31T12:28:49.955Z,979.51